createdAt,value
2023-01-30T00:15:03.562Z,90.64
2023-01-30T00:30:46.005Z,90.3
2023-01-30T00:46:29.139Z,89.88
2023-01-30T01:02:11.317Z,89.89
2023-01-30T01:17:54.398Z,89.81
2023-01-30T01:33:36.931Z,90.17
2023-01-30T01:49:19.391Z,90.18
2023-01-30T02:05:01.556Z,90.39
2023-01-30T02:20:44.295Z,91.58
2023-01-30T02:36:27.269Z,94.84
2023-01-30T02:52:10.314Z,95.23
2023-01-30T03:07:53.325Z,99.32
2023-01-30T03:23:36.364Z,100
2023-01-30T03:39:18.583Z,100
2023-01-30T03:55:00.948Z,100
2023-01-30T04:10:43.545Z,100
2023-01-30T04:26:26.379Z,100
2023-01-30T04:42:08.328Z,100
2023-01-30T04:57:51.331Z,100
2023-01-30T05:13:34.472Z,100
2023-01-30T05:29:16.775Z,100
2023-01-30T05:44:59.354Z,100
2023-01-30T06:00:41.670Z,100
2023-01-30T06:16:24.187Z,100
2023-01-30T06:32:07.199Z,100
2023-01-30T06:47:49.959Z,100
2023-01-30T07:03:33.265Z,100
2023-01-30T07:19:16.284Z,100
2023-01-30T07:34:58.901Z,100
2023-01-30T07:50:42.097Z,100
2023-01-30T08:06:24.817Z,100
2023-01-30T08:22:07.144Z,100
2023-01-30T08:37:49.395Z,100
2023-01-30T08:53:32.505Z,100
2023-01-30T09:09:15.279Z,100
2023-01-30T09:24:58.020Z,100
2023-01-30T09:40:40.523Z,100
2023-01-30T09:56:23.042Z,100
2023-01-30T10:12:06.153Z,100
2023-01-30T10:27:48.977Z,98.1
2023-01-30T10:43:31.117Z,91.82
2023-01-30T10:59:13.746Z,89.59
2023-01-30T11:14:56.420Z,86.81
2023-01-30T11:30:38.638Z,85.42
2023-01-30T11:46:21.558Z,85.64
2023-01-30T12:02:03.800Z,85.58
2023-01-30T12:17:46.592Z,84.6
2023-01-30T12:33:29.513Z,93.03
2023-01-30T12:49:11.830Z,89.61
2023-01-30T13:04:54.585Z,89.61
2023-01-30T13:05:41.972Z,87.93
2023-01-30T13:21:24.412Z,82.15
2023-01-30T13:37:07.088Z,81.13
2023-01-30T13:52:49.566Z,80.7
2023-01-30T14:08:32.386Z,94.95
2023-01-30T14:24:15.554Z,100
2023-01-30T14:39:58.187Z,100
2023-01-30T14:55:40.687Z,100
2023-01-30T15:11:23.191Z,100
2023-01-30T15:27:06.043Z,100
2023-01-30T15:42:49.004Z,100
2023-01-30T15:58:31.134Z,100
2023-01-30T16:14:14.134Z,100
2023-01-30T16:29:57.342Z,100
2023-01-30T16:45:40.605Z,100
2023-01-30T17:01:23.246Z,100
2023-01-30T17:17:06.152Z,100
2023-01-30T17:32:48.544Z,100
2023-01-30T17:48:31.243Z,100
2023-01-30T18:04:13.459Z,100
2023-01-30T18:19:56.023Z,99.89
2023-01-30T18:35:38.371Z,95.76
2023-01-30T18:51:21.212Z,93.9
2023-01-30T19:07:03.558Z,90.23
2023-01-30T19:22:46.238Z,88.12
2023-01-30T19:38:28.834Z,86.9
2023-01-30T19:54:11.189Z,84.48
2023-01-30T20:09:53.472Z,85.93
2023-01-30T20:25:35.559Z,87.42
2023-01-30T20:41:18.129Z,86.66
2023-01-30T20:57:00.153Z,84.06
2023-01-30T21:12:42.683Z,81.36
2023-01-30T21:28:25.079Z,78.92
2023-01-30T21:44:07.732Z,83.41
2023-01-30T21:59:50.337Z,84.5
2023-01-30T22:15:32.483Z,84.78
2023-01-30T22:31:15.069Z,83.96
2023-01-30T22:46:57.314Z,83.46
2023-01-30T23:02:40.165Z,84.63
2023-01-30T23:18:22.901Z,84.88
2023-01-30T23:34:05.327Z,85.18
2023-01-30T23:49:47.843Z,83.93
